This is the latest recevied weather packets stored in our database for station/object AI5KP-13. If no packets are shown the sender has not sent any weather packets the latest 10 day(s).
| Time | Temp. | Humidity | Pressure | Rain* | Wind** | Luminosity | Snow |
|---|---|---|---|---|---|---|---|
| 1777583223 | 18.89° C | 41% | 1015.4 hPa | 0 mm | - | 289 W/m² | - |
| 1777582918 | 19.44° C | 44% | 1015.6 hPa | 0 mm | - | 425 W/m² | - |
| 1777582616 | 20° C | 41% | 1016 hPa | 0 mm | - | 340 W/m² | - |
| 1777582311 | 20.56° C | 39% | 1016 hPa | 0 mm | - | 456 W/m² | - |
| 1777582009 | 20° C | 41% | 1015.8 hPa | 0 mm | - | 450 W/m² | - |
| 1777581704 | 19.44° C | 40% | 1016 hPa | 0 mm | - | 467 W/m² | - |
| 1777581398 | 20° C | 40% | 1016.1 hPa | 0 mm | - | 378 W/m² | - |
| 1777581093 | 20° C | 40% | 1016.2 hPa | 0 mm | - | 495 W/m² | - |
| 1777580792 | 20° C | 41% | 1016.1 hPa | 0 mm | - | 528 W/m² | - |
| 1777580489 | 20° C | 40% | 1016 hPa | 0 mm | - | 744 W/m² | - |
| 1777580183 | 20° C | 40% | 1016.2 hPa | 0 mm | - | 577 W/m² | - |
| 1777579881 | 20.56° C | 38% | 1016.3 hPa | 0 mm | - | 599 W/m² | - |
| 1777579580 | 19.44° C | 41% | 1016.4 hPa | 0 mm | - | 619 W/m² | - |
| 1777579274 | 20° C | 40% | 1016.2 hPa | 0 mm | - | 426 W/m² | - |
| 1777578970 | 20.56° C | 41% | 1016.4 hPa | 0 mm | - | 422 W/m² | - |
| 1777578666 | 19.44° C | 42% | 1016.4 hPa | 0 mm | - | 524 W/m² | - |
| 1777578364 | 21.11° C | 44% | 1016.4 hPa | 0 mm | - | 569 W/m² | - |
| 1777578061 | 20.56° C | 44% | 1016.6 hPa | 0 mm | - | 670 W/m² | - |
| 1777577755 | 19.44° C | 46% | 1016.8 hPa | 0 mm | - | 469 W/m² | - |
| 1777577452 | 20.56° C | 44% | 1016.6 hPa | 0 mm | - | 659 W/m² | - |
| 1777577150 | 18.89° C | 46% | 1016.6 hPa | 0 mm | - | 618 W/m² | - |
| 1777576846 | 19.44° C | 46% | 1016.5 hPa | 0 mm | - | 635 W/m² | - |
| 1777576545 | 18.33° C | 53% | 1016.5 hPa | 0 mm | - | 562 W/m² | - |
| 1777576241 | 18.89° C | 51% | 1016.5 hPa | 0 mm | - | 677 W/m² | - |
| 1777575938 | 19.44° C | 49% | 1016.7 hPa | 0 mm | - | 448 W/m² | - |
* Rain latest hour (hover to see other rain measurements)
** Current wind speed in m/s (hover to see current wind gust speed)